createdAt,value
2023-03-02T00:00:55.987Z,69.56
2023-03-02T00:01:55.993Z,69.56
2023-03-02T00:02:55.960Z,69.77
2023-03-02T00:03:56.027Z,69.56
2023-03-02T00:04:55.955Z,69.24
2023-03-02T00:05:55.949Z,69.14
2023-03-02T00:06:55.933Z,69.14
2023-03-02T00:07:55.912Z,68.82
2023-03-02T00:08:55.917Z,68.59
2023-03-02T00:09:55.899Z,68.16
2023-03-02T00:10:55.911Z,68.27
2023-03-02T00:11:55.886Z,67.85
2023-03-02T00:12:55.865Z,67.64
2023-03-02T00:13:55.858Z,67.64
2023-03-02T00:14:55.844Z,67.54
2023-03-02T00:15:55.909Z,66.88
2023-03-02T00:16:55.843Z,66.99
2023-03-02T00:17:55.821Z,66.77
2023-03-02T00:18:55.805Z,66.99
2023-03-02T00:19:55.805Z,67.19
2023-03-02T00:20:55.792Z,67.19
2023-03-02T00:21:55.787Z,67.33
2023-03-02T00:22:55.773Z,67.22
2023-03-02T00:23:55.783Z,67.33
2023-03-02T00:24:55.750Z,67.54
2023-03-02T00:25:55.742Z,67.22
2023-03-02T00:26:55.730Z,67.12
2023-03-02T00:27:55.719Z,67.22
2023-03-02T00:28:55.707Z,67.33
2023-03-02T00:29:55.704Z,67.12
2023-03-02T00:30:55.755Z,67.22
2023-03-02T00:31:55.858Z,66.88
2023-03-02T00:32:55.662Z,66.91
2023-03-02T00:33:55.656Z,66.77
2023-03-02T00:34:55.641Z,66.60
2023-03-02T00:35:55.669Z,66.88
2023-03-02T00:36:55.632Z,66.88
2023-03-02T00:37:55.616Z,66.67
2023-03-02T00:38:55.621Z,66.56
2023-03-02T00:39:55.600Z,66.91
2023-03-02T00:40:55.599Z,66.99
2023-03-02T00:41:55.935Z,66.70
2023-03-02T00:42:55.564Z,66.80
2023-03-02T00:43:55.559Z,66.60
2023-03-02T00:44:55.551Z,66.70
2023-03-02T00:45:55.535Z,66.60
2023-03-02T00:46:55.872Z,66.60
2023-03-02T00:47:55.519Z,66.70
2023-03-02T00:48:55.520Z,66.70
2023-03-02T00:49:55.514Z,66.56
2023-03-02T00:50:55.488Z,66.49
2023-03-02T00:51:55.829Z,66.49
2023-03-02T00:52:55.475Z,66.60
2023-03-02T00:53:55.453Z,66.60
2023-03-02T00:54:55.444Z,66.70
2023-03-02T00:55:55.442Z,66.49
2023-03-02T00:56:55.767Z,66.60
2023-03-02T00:57:55.422Z,66.60
2023-03-02T00:58:55.412Z,66.70
2023-03-02T00:59:55.403Z,66.80
2023-03-02T01:00:55.381Z,66.70
2023-03-02T01:01:55.938Z,66.80
2023-03-02T01:02:55.485Z,66.80
2023-03-02T01:03:55.357Z,66.80
2023-03-02T01:04:55.350Z,66.91
2023-03-02T01:05:55.342Z,66.91
2023-03-02T01:06:55.620Z,66.91
2023-03-02T01:07:55.315Z,66.91
2023-03-02T01:08:55.330Z,66.91
2023-03-02T01:09:55.327Z,66.91
2023-03-02T01:10:55.298Z,67.22
2023-03-02T01:11:55.588Z,67.22
2023-03-02T01:12:55.272Z,67.67
2023-03-02T01:13:55.267Z,67.88
2023-03-02T01:14:55.263Z,68.19
2023-03-02T01:15:55.278Z,68.62
2023-03-02T01:16:56.137Z,68.65
2023-03-02T01:17:55.230Z,69.17
2023-03-02T01:18:55.220Z,69.27
2023-03-02T01:19:55.198Z,69.73
2023-03-02T01:20:55.196Z,69.83
2023-03-02T01:21:55.696Z,70.15
2023-03-02T01:22:55.194Z,70.36
2023-03-02T01:23:55.199Z,70.67
2023-03-02T01:24:55.162Z,70.67
2023-03-02T01:25:55.147Z,70.67
2023-03-02T01:26:55.859Z,70.91
2023-03-02T01:27:55.132Z,71.23
2023-03-02T01:28:55.131Z,71.23
2023-03-02T01:29:55.107Z,71.54
2023-03-02T01:30:55.099Z,71.65
2023-03-02T01:31:55.507Z,71.54
2023-03-02T01:32:55.094Z,71.23
2023-03-02T01:33:55.063Z,70.91
2023-03-02T01:34:55.057Z,70.81
2023-03-02T01:35:55.091Z,70.50
2023-03-02T01:36:56.014Z,70.18
2023-03-02T01:37:55.030Z,69.93
2023-03-02T01:38:55.085Z,69.62
2023-03-02T01:39:55.013Z,69.41
2023-03-02T01:40:55.009Z,69.20
2023-03-02T01:41:55.310Z,69.62
2023-03-02T01:42:54.982Z,70.36
2023-03-02T01:43:54.974Z,70.78
2023-03-02T01:44:54.966Z,70.81
2023-03-02T01:45:55.003Z,70.50
2023-03-02T01:46:55.740Z,70.07
2023-03-02T01:47:54.924Z,69.83
2023-03-02T01:48:54.929Z,69.52
2023-03-02T01:49:54.923Z,69.83
2023-03-02T01:50:54.908Z,69.10
2023-03-02T01:51:55.658Z,68.12
2023-03-02T01:52:54.887Z,67.60
2023-03-02T01:53:55.601Z,67.25
2023-03-02T01:54:54.857Z,67.05
2023-03-02T01:55:54.847Z,66.83
2023-03-02T01:56:55.699Z,66.73
2023-03-02T01:57:54.834Z,66.42
2023-03-02T01:58:54.830Z,66.00
2023-03-02T01:59:54.818Z,65.76
2023-03-02T02:00:54.850Z,65.76
2023-03-02T02:01:55.168Z,65.76
2023-03-02T02:02:54.787Z,65.89
2023-03-02T02:03:54.805Z,66.20
2023-03-02T02:04:54.763Z,66.73
2023-03-02T02:05:54.753Z,67.36
2023-03-02T02:06:54.755Z,68.23
2023-03-02T02:07:54.732Z,68.89
2023-03-02T02:08:54.734Z,68.47
2023-03-02T02:09:54.705Z,68.15
2023-03-02T02:10:54.697Z,68.23
2023-03-02T02:11:54.697Z,68.57
2023-03-02T02:12:54.693Z,68.47
2023-03-02T02:13:54.665Z,68.26
2023-03-02T02:14:54.670Z,68.15
2023-03-02T02:15:54.652Z,68.02
2023-03-02T02:16:54.726Z,67.49
2023-03-02T02:17:54.634Z,67.29
2023-03-02T02:18:54.623Z,67.60
2023-03-02T02:19:54.618Z,67.71
2023-03-02T02:20:54.603Z,67.71
2023-03-02T02:21:54.592Z,67.81
2023-03-02T02:22:54.585Z,68.02
2023-03-02T02:23:54.570Z,68.02
2023-03-02T02:24:54.560Z,68.26
2023-03-02T02:25:54.549Z,68.26
2023-03-02T02:26:54.536Z,68.26
2023-03-02T02:27:54.553Z,68.26
2023-03-02T02:28:54.525Z,68.26
2023-03-02T02:29:54.528Z,68.26
2023-03-02T02:30:54.500Z,68.78
2023-03-02T02:31:54.667Z,68.89
2023-03-02T02:32:54.517Z,68.89
2023-03-02T02:33:54.499Z,68.26
2023-03-02T02:34:54.478Z,68.37
2023-03-02T02:35:54.517Z,69.31
2023-03-02T02:36:54.442Z,69.97
2023-03-02T02:37:54.439Z,70.39
2023-03-02T02:38:54.423Z,71.12
2023-03-02T02:39:54.411Z,71.47
2023-03-02T02:40:54.407Z,71.26
2023-03-02T02:41:54.394Z,71.05
2023-03-02T02:42:54.391Z,71.15
2023-03-02T02:43:54.368Z,71.15
2023-03-02T02:44:54.365Z,71.58
2023-03-02T02:45:54.398Z,71.78
2023-03-02T02:46:54.350Z,71.92
2023-03-02T02:47:54.331Z,72.76
2023-03-02T02:48:54.333Z,72.66
2023-03-02T02:49:54.307Z,72.86
2023-03-02T02:50:54.305Z,73.08
2023-03-02T02:51:54.295Z,73.11
2023-03-02T02:52:54.314Z,73.43
2023-03-02T02:53:54.264Z,73.11
2023-03-02T02:54:54.273Z,73.22
2023-03-02T02:55:54.256Z,73.00
2023-03-02T02:56:54.258Z,73.11
2023-03-02T02:57:54.256Z,73.22
2023-03-02T02:58:54.237Z,73.53
2023-03-02T02:59:54.206Z,73.74
2023-03-02T03:00:54.264Z,73.88
2023-03-02T03:01:54.196Z,73.63
2023-03-02T03:02:54.190Z,73.43
2023-03-02T03:03:54.199Z,73.53
2023-03-02T03:04:54.165Z,71.40
2023-03-02T03:05:54.159Z,70.31
2023-03-02T03:06:54.159Z,69.90
2023-03-02T03:07:54.142Z,69.23
2023-03-02T03:08:54.155Z,69.02
2023-03-02T03:09:54.129Z,69.23
2023-03-02T03:10:54.099Z,68.71
2023-03-02T03:11:54.093Z,69.55
2023-03-02T03:12:54.099Z,70.07
2023-03-02T03:13:54.088Z,70.42
2023-03-02T03:14:54.072Z,71.15
2023-03-02T03:15:54.057Z,71.81
2023-03-02T03:16:54.140Z,72.58
2023-03-02T03:17:54.050Z,72.90
2023-03-02T03:18:54.027Z,73.43
2023-03-02T03:19:54.017Z,73.88
2023-03-02T03:20:54.017Z,74.19
2023-03-02T03:21:53.995Z,74.30
2023-03-02T03:22:54.662Z,74.54
2023-03-02T03:23:53.981Z,74.96
2023-03-02T03:24:53.977Z,75.07
2023-03-02T03:25:53.954Z,75.17
2023-03-02T03:26:53.963Z,75.49
2023-03-02T03:27:53.950Z,75.70
2023-03-02T03:28:53.938Z,75.70
2023-03-02T03:29:53.913Z,75.81
2023-03-02T03:30:53.997Z,75.81
2023-03-02T03:31:53.953Z,75.70
2023-03-02T03:32:54.208Z,75.91
2023-03-02T03:33:53.866Z,76.05
2023-03-02T03:34:53.867Z,76.05
2023-03-02T03:35:53.904Z,75.95
2023-03-02T03:36:53.852Z,76.05
2023-03-02T03:37:54.155Z,76.15
2023-03-02T03:38:53.832Z,75.95
2023-03-02T03:39:53.815Z,75.38
2023-03-02T03:40:53.799Z,75.28
2023-03-02T03:41:53.791Z,75.28
2023-03-02T03:42:54.098Z,74.86
2023-03-02T03:43:53.792Z,74.62
2023-03-02T03:44:53.763Z,74.30
2023-03-02T03:45:53.772Z,74.62
2023-03-02T03:46:53.760Z,74.72
2023-03-02T03:47:54.017Z,74.96
2023-03-02T03:48:53.725Z,74.86
2023-03-02T03:49:53.707Z,74.51
2023-03-02T03:50:53.706Z,73.99
2023-03-02T03:51:53.709Z,73.46
2023-03-02T03:52:54.177Z,72.90
2023-03-02T03:53:53.664Z,71.92
2023-03-02T03:54:53.662Z,71.71
2023-03-02T03:55:53.655Z,71.08
2023-03-02T03:56:53.654Z,70.98
2023-03-02T03:57:53.985Z,71.50
2023-03-02T03:58:53.656Z,71.29
2023-03-02T03:59:53.616Z,71.40
2023-03-02T04:00:53.606Z,70.95
2023-03-02T04:01:53.656Z,70.95
2023-03-02T04:02:53.933Z,70.53
2023-03-02T04:03:53.568Z,70.10
2023-03-02T04:04:53.560Z,70.10
2023-03-02T04:05:53.555Z,70.21
2023-03-02T04:06:53.547Z,70.10
2023-03-02T04:07:53.773Z,70.21
2023-03-02T04:08:53.535Z,70.00
2023-03-02T04:09:53.506Z,70.42
2023-03-02T04:10:53.508Z,70.31
2023-03-02T04:11:53.504Z,69.68
2023-03-02T04:12:53.826Z,69.58
2023-03-02T04:13:53.467Z,69.68
2023-03-02T04:14:53.463Z,69.68
2023-03-02T04:15:53.595Z,69.79
2023-03-02T04:16:53.447Z,69.48
2023-03-02T04:17:53.785Z,69.48
2023-03-02T04:18:53.426Z,69.48
2023-03-02T04:19:53.410Z,69.90
2023-03-02T04:20:53.410Z,69.90
2023-03-02T04:21:53.395Z,69.79
2023-03-02T04:22:54.129Z,70.21
2023-03-02T04:23:53.376Z,70.21
2023-03-02T04:24:53.365Z,69.58
2023-03-02T04:25:53.345Z,69.68
2023-03-02T04:26:53.354Z,69.90
2023-03-02T04:27:53.723Z,70.21
2023-03-02T04:28:53.336Z,70.31
2023-03-02T04:29:53.318Z,70.00
2023-03-02T04:30:53.361Z,70.21
2023-03-02T04:31:53.357Z,70.21
2023-03-02T04:32:53.726Z,70.31
2023-03-02T04:33:53.280Z,70.31
2023-03-02T04:34:53.282Z,70.21
2023-03-02T04:35:53.286Z,70.45
2023-03-02T04:36:53.268Z,70.35
2023-03-02T04:37:53.555Z,69.93
2023-03-02T04:38:53.258Z,69.58
2023-03-02T04:39:53.221Z,69.68
2023-03-02T04:40:53.229Z,69.37
2023-03-02T04:41:53.228Z,69.26
2023-03-02T04:42:53.589Z,69.58
2023-03-02T04:43:53.196Z,68.95
2023-03-02T04:44:53.180Z,68.74
2023-03-02T04:45:53.249Z,68.74
2023-03-02T04:46:53.178Z,68.74
2023-03-02T04:47:53.162Z,69.06
2023-03-02T04:48:53.141Z,69.37
2023-03-02T04:49:53.134Z,69.48
2023-03-02T04:50:53.128Z,69.68
2023-03-02T04:51:53.113Z,69.06
2023-03-02T04:52:53.767Z,68.95
2023-03-02T04:53:53.098Z,69.06
2023-03-02T04:54:53.108Z,69.26
2023-03-02T04:55:53.074Z,69.68
2023-03-02T04:56:53.078Z,68.95
2023-03-02T04:57:53.232Z,68.74
2023-03-02T04:58:53.048Z,68.74
2023-03-02T04:59:53.047Z,69.26
2023-03-02T05:00:53.020Z,69.48
2023-03-02T05:01:53.047Z,69.79
2023-03-02T05:02:53.334Z,70.00
2023-03-02T05:03:53.010Z,70.66
2023-03-02T05:04:53.127Z,70.56
2023-03-02T05:05:52.987Z,70.66
2023-03-02T05:06:52.973Z,70.87
2023-03-02T05:07:53.400Z,70.98
2023-03-02T05:08:52.953Z,71.01
2023-03-02T05:09:52.902Z,71.01
2023-03-02T05:10:52.871Z,70.80
2023-03-02T05:11:52.867Z,70.90
2023-03-02T05:12:53.337Z,70.80
2023-03-02T05:13:52.854Z,70.90
2023-03-02T05:14:52.830Z,70.69
2023-03-02T05:15:52.885Z,70.24
2023-03-02T05:16:52.870Z,70.24
2023-03-02T05:17:52.859Z,69.93
2023-03-02T05:18:52.855Z,69.82
2023-03-02T05:19:52.846Z,69.51
2023-03-02T05:20:52.827Z,69.40
2023-03-02T05:21:52.828Z,69.40
2023-03-02T05:22:52.804Z,69.37
2023-03-02T05:23:52.802Z,69.37
2023-03-02T05:24:52.794Z,69.37
2023-03-02T05:25:52.725Z,69.30
2023-03-02T05:26:52.781Z,69.40
2023-03-02T05:27:52.775Z,69.26
2023-03-02T05:28:54.095Z,68.95
2023-03-02T05:29:52.741Z,68.63
2023-03-02T05:30:52.726Z,68.63
2023-03-02T05:31:52.930Z,68.74
2023-03-02T05:32:52.720Z,68.53
2023-03-02T05:33:52.676Z,68.53
2023-03-02T05:34:52.645Z,68.53
2023-03-02T05:35:52.652Z,68.95
2023-03-02T05:36:52.631Z,68.11
2023-03-02T05:37:52.662Z,68.11
2023-03-02T05:38:52.664Z,68.11
2023-03-02T05:39:52.642Z,68.01
2023-03-02T05:40:52.650Z,67.48
2023-03-02T05:41:52.579Z,68.08
2023-03-02T05:42:52.627Z,68.01
2023-03-02T05:43:52.621Z,67.90
2023-03-02T05:44:52.550Z,67.55
2023-03-02T05:45:52.531Z,67.14
2023-03-02T05:46:52.583Z,67.03
2023-03-02T05:47:52.520Z,66.82
2023-03-02T05:48:52.514Z,66.40
2023-03-02T05:49:52.496Z,66.61
2023-03-02T05:50:52.489Z,66.61
2023-03-02T05:51:52.474Z,66.72
2023-03-02T05:52:52.468Z,66.93
2023-03-02T05:53:52.452Z,66.82
2023-03-02T05:54:52.449Z,66.61
2023-03-02T05:55:52.429Z,66.72
2023-03-02T05:56:52.416Z,66.61
2023-03-02T05:57:52.420Z,66.82
2023-03-02T05:58:52.443Z,66.27
2023-03-02T05:59:52.396Z,66.37
2023-03-02T06:00:52.369Z,66.58
2023-03-02T06:01:52.417Z,66.37
2023-03-02T06:02:52.415Z,65.84
2023-03-02T06:03:52.378Z,66.16
2023-03-02T06:04:52.330Z,65.95
2023-03-02T06:05:52.378Z,65.84
2023-03-02T06:06:52.321Z,66.47
2023-03-02T06:07:52.311Z,66.06
2023-03-02T06:08:52.304Z,65.84
2023-03-02T06:09:52.293Z,66.27
2023-03-02T06:10:52.279Z,66.47
2023-03-02T06:11:52.268Z,66.06
2023-03-02T06:12:52.256Z,66.06
2023-03-02T06:13:52.256Z,66.16
2023-03-02T06:14:52.234Z,66.16
2023-03-02T06:15:52.235Z,66.27
2023-03-02T06:16:52.275Z,66.27
2023-03-02T06:17:52.211Z,66.47
2023-03-02T06:18:52.204Z,66.47
2023-03-02T06:19:52.209Z,66.47
2023-03-02T06:20:52.175Z,66.27
2023-03-02T06:21:52.197Z,65.74
2023-03-02T06:22:52.157Z,65.64
2023-03-02T06:23:52.167Z,65.53
2023-03-02T06:24:52.132Z,65.08
2023-03-02T06:25:52.133Z,64.98
2023-03-02T06:26:52.127Z,64.98
2023-03-02T06:27:52.121Z,65.19
2023-03-02T06:28:53.910Z,65.08
2023-03-02T06:29:52.091Z,65.19
2023-03-02T06:30:52.099Z,64.77
2023-03-02T06:31:52.268Z,64.42
2023-03-02T06:32:52.217Z,64.53
2023-03-02T06:33:52.068Z,64.84
2023-03-02T06:34:52.045Z,64.22
2023-03-02T06:35:52.157Z,63.79
2023-03-02T06:36:52.026Z,64.32
2023-03-02T06:37:52.018Z,63.79
2023-03-02T06:38:52.249Z,63.48
2023-03-02T06:39:51.999Z,63.59
2023-03-02T06:40:51.975Z,63.45
2023-03-02T06:41:52.002Z,63.67
2023-03-02T06:42:51.958Z,63.56
2023-03-02T06:43:52.096Z,63.77
2023-03-02T06:44:51.938Z,63.98
2023-03-02T06:45:51.972Z,63.87
2023-03-02T06:46:51.923Z,63.87
2023-03-02T06:47:51.920Z,62.82
2023-03-02T06:48:52.594Z,63.14
2023-03-02T06:49:51.897Z,63.01
2023-03-02T06:50:51.880Z,63.42
2023-03-02T06:51:51.889Z,62.69
2023-03-02T06:52:51.860Z,63.11
2023-03-02T06:53:52.435Z,62.48
2023-03-02T06:54:51.847Z,62.48
2023-03-02T06:55:51.841Z,62.90
2023-03-02T06:56:51.827Z,62.48
2023-03-02T06:57:51.820Z,62.04
2023-03-02T06:58:51.812Z,61.85
2023-03-02T06:59:51.790Z,61.85
2023-03-02T07:00:51.791Z,62.24
2023-03-02T07:01:51.776Z,62.45
2023-03-02T07:02:51.765Z,62.77
2023-03-02T07:03:52.188Z,62.04
2023-03-02T07:04:51.745Z,62.04
2023-03-02T07:05:51.740Z,62.56
2023-03-02T07:06:51.726Z,62.14
2023-03-02T07:07:51.739Z,62.87
2023-03-02T07:08:52.360Z,61.83
2023-03-02T07:09:51.692Z,61.51
2023-03-02T07:10:51.688Z,61.41
2023-03-02T07:11:51.681Z,61.51
2023-03-02T07:12:51.656Z,61.83
2023-03-02T07:13:51.777Z,61.38
2023-03-02T07:14:51.636Z,60.78
2023-03-02T07:15:51.637Z,61.38
2023-03-02T07:16:51.658Z,61.27
2023-03-02T07:17:51.627Z,61.07
2023-03-02T07:18:52.215Z,61.38
2023-03-02T07:19:51.592Z,61.49
2023-03-02T07:20:51.589Z,61.17
2023-03-02T07:21:51.578Z,60.65
2023-03-02T07:22:51.563Z,61.07
2023-03-02T07:23:51.571Z,60.72
2023-03-02T07:24:51.534Z,60.83
2023-03-02T07:25:51.530Z,60.62
2023-03-02T07:26:51.526Z,60.72
2023-03-02T07:27:51.519Z,61.04
2023-03-02T07:28:51.530Z,60.62
2023-03-02T07:29:51.492Z,60.72
2023-03-02T07:30:51.535Z,60.10
2023-03-02T07:31:51.518Z,60.10
2023-03-02T07:32:51.459Z,60.62
2023-03-02T07:33:51.911Z,59.78
2023-03-02T07:34:51.441Z,61.22
2023-03-02T07:35:51.480Z,60.28
2023-03-02T07:36:51.417Z,60.28
2023-03-02T07:37:51.417Z,59.97
2023-03-02T07:38:51.789Z,59.55
2023-03-02T07:39:51.401Z,59.23
2023-03-02T07:40:51.380Z,59.55
2023-03-02T07:41:51.371Z,59.63
2023-03-02T07:42:51.358Z,59.83
2023-03-02T07:43:51.667Z,59.21
2023-03-02T07:44:51.345Z,59.10
2023-03-02T07:45:51.343Z,59.10
2023-03-02T07:46:51.392Z,58.58
2023-03-02T07:47:51.320Z,58.69
2023-03-02T07:48:52.137Z,58.66
2023-03-02T07:49:51.296Z,58.97
2023-03-02T07:50:51.278Z,58.76
2023-03-02T07:51:51.277Z,58.45
2023-03-02T07:52:51.267Z,58.03
2023-03-02T07:53:51.613Z,58.22
2023-03-02T07:54:51.237Z,58.53
2023-03-02T07:55:51.236Z,58.01
2023-03-02T07:56:51.222Z,58.53
2023-03-02T07:57:51.211Z,58.11
2023-03-02T07:58:51.615Z,57.59
2023-03-02T07:59:51.198Z,57.46
2023-03-02T08:00:51.189Z,57.35
2023-03-02T08:01:51.207Z,58.08
2023-03-02T08:02:51.231Z,57.64
2023-03-02T08:03:51.631Z,56.70
2023-03-02T08:04:51.135Z,57.32
2023-03-02T08:05:51.133Z,57.54
2023-03-02T08:06:51.124Z,56.91
2023-03-02T08:07:51.121Z,57.22
2023-03-02T08:08:51.458Z,56.47
2023-03-02T08:09:51.102Z,56.78
2023-03-02T08:10:51.081Z,55.74
2023-03-02T08:11:51.073Z,56.37
2023-03-02T08:12:51.058Z,56.37
2023-03-02T08:13:51.409Z,56.15
2023-03-02T08:14:51.043Z,55.51
2023-03-02T08:15:51.054Z,56.86
2023-03-02T08:16:51.024Z,57.79
2023-03-02T08:17:51.013Z,56.21
2023-03-02T08:18:51.388Z,55.48
2023-03-02T08:19:50.993Z,54.75
2023-03-02T08:20:50.998Z,55.38
2023-03-02T08:21:50.987Z,54.96
2023-03-02T08:22:50.964Z,54.96
2023-03-02T08:23:51.454Z,55.27
2023-03-02T08:24:50.941Z,55.58
2023-03-02T08:25:50.940Z,55.48
2023-03-02T08:26:50.923Z,55.35
2023-03-02T08:27:50.921Z,55.14
2023-03-02T08:28:51.414Z,55.77
2023-03-02T08:29:50.904Z,55.14
2023-03-02T08:30:50.951Z,54.80
2023-03-02T08:31:51.031Z,53.97
2023-03-02T08:32:50.902Z,54.80
2023-03-02T08:33:51.121Z,54.39
2023-03-02T08:34:50.846Z,54.68
2023-03-02T08:35:52.766Z,54.16
2023-03-02T08:36:50.831Z,54.26
2023-03-02T08:37:50.839Z,54.16
2023-03-02T08:38:51.260Z,53.74
2023-03-02T08:39:50.809Z,53.43
2023-03-02T08:40:50.789Z,54.16
2023-03-02T08:41:50.786Z,54.03
2023-03-02T08:42:50.768Z,53.72
2023-03-02T08:43:51.061Z,52.88
2023-03-02T08:44:50.743Z,54.03
2023-03-02T08:45:50.791Z,54.32
2023-03-02T08:46:50.779Z,52.44
2023-03-02T08:47:50.718Z,52.75
2023-03-02T08:48:51.063Z,52.86
2023-03-02T08:49:50.689Z,52.75
2023-03-02T08:50:50.681Z,53.90
2023-03-02T08:51:50.682Z,53.69
2023-03-02T08:52:50.658Z,52.31
2023-03-02T08:53:50.987Z,51.90
2023-03-02T08:54:50.702Z,52.42
2023-03-02T08:55:50.635Z,52.42
2023-03-02T08:56:50.626Z,51.17
2023-03-02T08:57:50.634Z,51.69
2023-03-02T08:58:50.602Z,51.48
2023-03-02T08:59:50.629Z,52.92
2023-03-02T09:00:50.602Z,52.40
2023-03-02T09:01:50.576Z,51.34
2023-03-02T09:02:50.558Z,50.71
2023-03-02T09:03:50.557Z,50.20
2023-03-02T09:04:50.605Z,50.51
2023-03-02T09:05:50.529Z,51.34
2023-03-02T09:06:50.508Z,52.97
2023-03-02T09:07:50.505Z,53.67
2023-03-02T09:08:50.503Z,50.87
2023-03-02T09:09:50.511Z,50.12
2023-03-02T09:10:50.481Z,49.81
2023-03-02T09:11:50.472Z,49.40
2023-03-02T09:12:50.461Z,48.88
2023-03-02T09:13:50.440Z,48.68
2023-03-02T09:14:50.446Z,51.26
2023-03-02T09:15:50.435Z,48.86
2023-03-02T09:16:50.433Z,48.78
2023-03-02T09:17:50.400Z,49.19
2023-03-02T09:18:50.401Z,49.19
2023-03-02T09:19:50.384Z,48.36
2023-03-02T09:20:50.378Z,49.48
2023-03-02T09:21:50.360Z,51.01
2023-03-02T09:22:50.355Z,52.46
2023-03-02T09:23:50.340Z,49.95
2023-03-02T09:24:50.338Z,48.30
2023-03-02T09:25:50.319Z,48.48
2023-03-02T09:26:50.314Z,49.41
2023-03-02T09:27:50.306Z,46.81
2023-03-02T09:28:50.297Z,48.25
2023-03-02T09:29:50.308Z,48.65
2023-03-02T09:30:50.279Z,48.00
2023-03-02T09:31:50.312Z,46.14
2023-03-02T09:32:50.415Z,44.70
2023-03-02T09:33:50.279Z,44.29
2023-03-02T09:34:50.238Z,45.42
2023-03-02T09:35:50.228Z,46.23
2023-03-02T09:36:50.222Z,47.77
2023-03-02T09:37:50.233Z,46.31
2023-03-02T09:38:50.194Z,46.19
2023-03-02T09:39:50.227Z,43.91
2023-03-02T09:40:50.173Z,42.88
2023-03-02T09:41:50.155Z,42.99
2023-03-02T09:42:50.158Z,43.69
2023-03-02T09:43:50.144Z,45.61
2023-03-02T09:44:50.131Z,45.76
2023-03-02T09:45:50.157Z,41.14
2023-03-02T09:46:50.111Z,43.18
2023-03-02T09:47:50.104Z,41.43
2023-03-02T09:48:50.087Z,40.73
2023-03-02T09:49:50.578Z,40.75
2023-03-02T09:50:50.098Z,41.26
2023-03-02T09:51:50.056Z,40.11
2023-03-02T09:52:50.042Z,42.70
2023-03-02T09:53:50.027Z,41.35
2023-03-02T09:54:50.567Z,42.37
2023-03-02T09:55:50.009Z,43.07
2023-03-02T09:56:50.006Z,40.71
2023-03-02T09:57:49.984Z,43.67
2023-03-02T09:58:49.986Z,40.08
2023-03-02T09:59:50.152Z,40.59
2023-03-02T10:00:49.964Z,43.55
2023-03-02T10:01:49.994Z,42.42
2023-03-02T10:02:50.022Z,43.12
2023-03-02T10:03:50.108Z,43.20
2023-03-02T10:04:50.565Z,40.61
2023-03-02T10:05:49.913Z,41.62
2023-03-02T10:06:49.911Z,37.93
2023-03-02T10:07:49.883Z,38.07
2023-03-02T10:08:49.878Z,40.45
2023-03-02T10:09:50.755Z,41.06
2023-03-02T10:10:49.855Z,39.22
2023-03-02T10:11:49.906Z,40.55
2023-03-02T10:12:49.842Z,37.88
2023-03-02T10:13:49.829Z,39.22
2023-03-02T10:14:49.829Z,43.71
2023-03-02T10:15:49.856Z,37.68
2023-03-02T10:16:49.797Z,37.88
2023-03-02T10:17:49.787Z,39.30
2023-03-02T10:18:49.827Z,39.07
2023-03-02T10:19:49.937Z,36.29
2023-03-02T10:20:49.749Z,36.07
2023-03-02T10:21:49.731Z,36.05
2023-03-02T10:22:49.737Z,33.87
2023-03-02T10:23:49.720Z,33.54
2023-03-02T10:24:49.738Z,32.92
2023-03-02T10:25:49.699Z,35.17
2023-03-02T10:26:49.693Z,36.47
2023-03-02T10:27:49.690Z,38.32
2023-03-02T10:28:49.670Z,37.19
2023-03-02T10:29:49.932Z,34.33
2023-03-02T10:30:49.741Z,33.97
2023-03-02T10:31:49.634Z,34.60
2023-03-02T10:32:49.635Z,34.89
2023-03-02T10:33:49.621Z,34.58
2023-03-02T10:34:49.625Z,32.83
2023-03-02T10:35:49.667Z,33.02
2023-03-02T10:36:49.581Z,33.33
2023-03-02T10:37:49.604Z,32.50
2023-03-02T10:38:49.560Z,33.82
2023-03-02T10:39:49.559Z,33.81
2023-03-02T10:40:49.573Z,32.56
2023-03-02T10:41:49.592Z,32.56
2023-03-02T10:42:49.530Z,31.34
2023-03-02T10:43:49.506Z,31.88
2023-03-02T10:44:49.831Z,32.81
2023-03-02T10:45:49.553Z,35.28
2023-03-02T10:46:49.561Z,36.19
2023-03-02T10:47:49.468Z,32.80
2023-03-02T10:48:49.851Z,34.11
2023-03-02T10:49:49.476Z,35.63
2023-03-02T10:50:49.446Z,33.57
2023-03-02T10:51:49.419Z,34.88
2023-03-02T10:52:59.710Z,34.37
2023-03-02T10:53:49.406Z,33.57
2023-03-02T10:54:49.410Z,35.20
2023-03-02T10:55:49.390Z,33.15
2023-03-02T10:56:49.377Z,31.50
2023-03-02T10:57:49.373Z,31.08
2023-03-02T10:58:49.357Z,30.45
2023-03-02T10:59:49.373Z,30.96
2023-03-02T11:00:49.336Z,30.94
2023-03-02T11:01:49.348Z,30.94
2023-03-02T11:02:49.321Z,30.93
2023-03-02T11:03:49.302Z,31.93
2023-03-02T11:04:49.787Z,32.24
2023-03-02T11:05:49.298Z,30.10
2023-03-02T11:06:49.279Z,33.76
2023-03-02T11:07:49.270Z,30.42
2023-03-02T11:08:49.263Z,32.28
2023-03-02T11:09:49.239Z,34.44
2023-03-02T11:10:49.229Z,34.95
2023-03-02T11:11:49.242Z,36.07
2023-03-02T11:12:49.219Z,35.95
2023-03-02T11:13:49.212Z,33.62
2023-03-02T11:14:49.185Z,35.36
2023-03-02T11:15:49.246Z,33.40
2023-03-02T11:16:49.166Z,33.69
2023-03-02T11:17:49.173Z,34.01
2023-03-02T11:18:49.146Z,34.10
2023-03-02T11:19:49.128Z,32.57
2023-03-02T11:20:49.140Z,32.81
2023-03-02T11:21:49.103Z,35.17
2023-03-02T11:22:49.101Z,35.06
2023-03-02T11:23:49.098Z,34.76
2023-03-02T11:24:49.090Z,36.40
2023-03-02T11:25:49.078Z,35.77
2023-03-02T11:26:49.064Z,35.77
2023-03-02T11:27:49.040Z,34.34
2023-03-02T11:28:49.055Z,36.16
2023-03-02T11:29:49.035Z,34.19
2023-03-02T11:30:49.033Z,31.52
2023-03-02T11:31:49.093Z,34.99
2023-03-02T11:32:49.060Z,32.32
2023-03-02T11:33:49.020Z,30.68
2023-03-02T11:34:48.985Z,31.80
2023-03-02T11:35:49.104Z,28.94
2023-03-02T11:36:48.957Z,29.14
2023-03-02T11:37:48.936Z,31.08
2023-03-02T11:38:48.957Z,33.01
2023-03-02T11:39:56.216Z,30.06
2023-03-02T11:40:48.944Z,32.09
2023-03-02T11:41:48.927Z,30.87
2023-03-02T11:42:48.900Z,31.98
2023-03-02T11:43:48.875Z,30.36
2023-03-02T11:44:48.890Z,30.98
2023-03-02T11:45:48.868Z,31.08
2023-03-02T11:46:48.872Z,33.01
2023-03-02T11:47:54.237Z,34.00
2023-03-02T11:48:48.853Z,31.47
2023-03-02T11:49:48.834Z,31.10
2023-03-02T11:50:48.820Z,31.40
2023-03-02T11:51:57.837Z,31.92
2023-03-02T11:52:48.808Z,32.44
2023-03-02T11:53:48.836Z,33.24
2023-03-02T11:54:48.765Z,33.14
2023-03-02T11:55:48.834Z,33.12
2023-03-02T11:56:48.742Z,32.80
2023-03-02T11:57:48.745Z,30.76
2023-03-02T11:58:48.739Z,28.81
2023-03-02T11:59:48.723Z,27.18
2023-03-02T12:00:48.726Z,26.77
2023-03-02T12:01:48.746Z,26.67
2023-03-02T12:02:48.692Z,26.86
2023-03-02T12:03:48.676Z,27.97
2023-03-02T12:04:48.662Z,25.84
2023-03-02T12:05:48.691Z,26.54
2023-03-02T12:06:48.640Z,28.98
2023-03-02T12:07:48.631Z,28.05
2023-03-02T12:08:48.639Z,29.49
2023-03-02T12:09:48.605Z,29.21
2023-03-02T12:10:48.606Z,30.24
2023-03-02T12:11:48.582Z,30.04
2023-03-02T12:12:48.585Z,30.02
2023-03-02T12:13:48.581Z,28.31
2023-03-02T12:14:48.557Z,27.12
2023-03-02T12:15:48.556Z,29.08
2023-03-02T12:16:48.585Z,29.49
2023-03-02T12:17:48.567Z,31.21
2023-03-02T12:18:48.534Z,30.28
2023-03-02T12:19:48.534Z,30.48
2023-03-02T12:20:48.556Z,29.55
2023-03-02T12:21:48.480Z,29.17
2023-03-02T12:22:48.472Z,30.19
2023-03-02T12:23:48.461Z,28.96
2023-03-02T12:24:48.467Z,28.23
2023-03-02T12:25:48.464Z,29.13
2023-03-02T12:26:48.471Z,29.05
2023-03-02T12:27:48.418Z,29.97
2023-03-02T12:28:48.431Z,30.35
2023-03-02T12:29:48.430Z,29.12
2023-03-02T12:30:48.569Z,30.52
2023-03-02T12:31:48.425Z,28.38
2023-03-02T12:32:48.382Z,28.45
2023-03-02T12:33:48.375Z,27.13
2023-03-02T12:34:48.355Z,27.53
2023-03-02T12:35:48.527Z,29.85
2023-03-02T12:36:48.399Z,27.43
2023-03-02T12:37:48.323Z,27.46
2023-03-02T12:38:48.382Z,26.84
2023-03-02T12:39:48.304Z,26.64
2023-03-02T12:40:48.305Z,28.14
2023-03-02T12:41:48.290Z,27.95
2023-03-02T12:42:48.270Z,27.85
2023-03-02T12:43:48.332Z,27.44
2023-03-02T12:44:48.246Z,29.25
2023-03-02T12:45:48.276Z,26.71
2023-03-02T12:46:48.220Z,26.29
2023-03-02T12:47:48.634Z,24.76
2023-03-02T12:49:01.642Z,25.37
2023-03-02T12:49:48.197Z,25.76
2023-03-02T12:50:48.190Z,26.59
2023-03-02T12:51:48.286Z,27.33
2023-03-02T12:52:48.162Z,28.17